createdAt,value
2018-08-11T00:01:29.994Z,99.90
2018-08-11T00:03:58.421Z,99.90
2018-08-11T00:06:26.867Z,99.90
2018-08-11T00:08:55.389Z,99.90
2018-08-11T00:11:23.907Z,99.90
2018-08-11T00:13:52.397Z,99.90
2018-08-11T00:16:20.903Z,99.90
2018-08-11T00:18:49.518Z,99.90
2018-08-11T00:21:18.152Z,99.90
2018-08-11T00:23:46.709Z,99.90
2018-08-11T00:26:15.162Z,99.90
2018-08-11T00:28:43.551Z,99.90
2018-08-11T00:31:12.015Z,99.90
2018-08-11T00:33:40.474Z,99.90
2018-08-11T00:36:08.996Z,99.90
2018-08-11T00:38:37.799Z,99.90
2018-08-11T00:41:06.225Z,99.90
2018-08-11T00:43:34.717Z,99.90
2018-08-11T00:46:03.181Z,99.90
2018-08-11T00:48:31.609Z,99.90
2018-08-11T00:51:00.092Z,99.90
2018-08-11T00:53:28.521Z,99.90
2018-08-11T00:55:56.885Z,99.90
2018-08-11T00:58:25.440Z,99.90
2018-08-11T01:00:53.879Z,99.90
2018-08-11T01:03:22.328Z,99.90
2018-08-11T01:05:50.681Z,99.90
2018-08-11T01:08:19.224Z,99.90
2018-08-11T01:10:47.684Z,99.90
2018-08-11T01:13:16.121Z,99.90
2018-08-11T01:15:44.546Z,99.90
2018-08-11T01:18:12.955Z,99.90
2018-08-11T01:20:41.416Z,99.90
2018-08-11T01:23:09.950Z,99.90
2018-08-11T01:25:38.473Z,99.90
2018-08-11T01:28:06.926Z,99.90
2018-08-11T01:30:35.346Z,99.90
2018-08-11T01:33:03.770Z,99.90
2018-08-11T01:35:32.476Z,99.90
2018-08-11T01:38:01.054Z,99.90
2018-08-11T01:40:29.470Z,99.90
2018-08-11T01:42:57.907Z,99.90
2018-08-11T01:45:26.392Z,99.90
2018-08-11T01:47:54.736Z,99.90
2018-08-11T01:50:23.107Z,99.90
2018-08-11T01:52:51.600Z,99.90
2018-08-11T01:55:20.071Z,99.90
2018-08-11T01:57:48.461Z,99.90
2018-08-11T02:00:17.302Z,99.90
2018-08-11T02:02:45.675Z,99.90
2018-08-11T02:05:14.201Z,99.90
2018-08-11T02:07:43.633Z,99.90
2018-08-11T02:10:16.868Z,99.90
2018-08-11T02:12:45.929Z,99.90
2018-08-11T02:15:14.753Z,99.90
2018-08-11T02:17:43.154Z,99.90
2018-08-11T02:20:18.985Z,99.90
2018-08-11T02:22:48.346Z,99.90
2018-08-11T02:25:16.854Z,99.90
2018-08-11T02:27:45.236Z,99.90
2018-08-11T02:30:16.368Z,99.90
2018-08-11T02:32:44.829Z,99.90
2018-08-11T02:35:13.844Z,99.90
2018-08-11T02:37:42.611Z,99.90
2018-08-11T02:40:12.495Z,99.90
2018-08-11T02:42:41.046Z,99.90
2018-08-11T02:45:11.259Z,99.90
2018-08-11T02:47:39.700Z,99.90
2018-08-11T02:50:09.615Z,99.90
2018-08-11T02:52:38.485Z,99.90
2018-08-11T02:55:06.894Z,99.90
2018-08-11T02:57:35.511Z,99.90
2018-08-11T03:00:04.863Z,99.90
2018-08-11T03:02:33.375Z,99.90
2018-08-11T03:05:01.731Z,99.90
2018-08-11T03:07:30.138Z,99.90
2018-08-11T03:09:58.563Z,99.90
2018-08-11T03:12:27.139Z,99.90
2018-08-11T03:14:55.731Z,99.90
2018-08-11T03:17:24.326Z,99.90
2018-08-11T03:19:52.743Z,99.90
2018-08-11T03:22:21.160Z,99.90
2018-08-11T03:24:49.872Z,99.90
2018-08-11T03:27:18.317Z,99.90
2018-08-11T03:29:46.686Z,99.90
2018-08-11T03:32:15.144Z,99.90
2018-08-11T03:34:43.527Z,99.90
2018-08-11T03:37:11.903Z,99.90
2018-08-11T03:39:40.227Z,99.90
2018-08-11T03:42:08.609Z,99.90
2018-08-11T03:44:36.995Z,99.90
2018-08-11T03:47:05.455Z,99.90
2018-08-11T03:49:33.937Z,99.90
2018-08-11T03:52:02.333Z,99.90
2018-08-11T03:54:30.757Z,99.90
2018-08-11T03:56:59.221Z,99.90
2018-08-11T03:59:27.623Z,99.90
2018-08-11T04:01:56.045Z,99.90
2018-08-11T04:04:24.359Z,99.90
2018-08-11T04:06:52.803Z,99.90
2018-08-11T04:09:21.191Z,99.90
2018-08-11T04:11:49.554Z,99.90
2018-08-11T04:14:17.964Z,99.90
2018-08-11T04:16:46.383Z,99.90
2018-08-11T04:19:14.858Z,99.90
2018-08-11T04:21:43.187Z,99.90
2018-08-11T04:24:11.575Z,99.90
2018-08-11T04:26:40.067Z,99.90
2018-08-11T04:29:09.137Z,99.90
2018-08-11T04:31:37.941Z,99.90
2018-08-11T04:34:06.479Z,99.90
2018-08-11T04:36:35.007Z,99.90
2018-08-11T04:39:03.419Z,99.90
2018-08-11T04:41:31.876Z,99.90
2018-08-11T04:44:00.244Z,99.90
2018-08-11T04:46:28.615Z,99.90
2018-08-11T04:48:56.991Z,99.90
2018-08-11T04:51:25.384Z,99.90
2018-08-11T04:53:53.790Z,99.90
2018-08-11T04:56:22.150Z,99.90
2018-08-11T04:58:50.557Z,99.90
2018-08-11T05:01:18.955Z,99.90
2018-08-11T05:03:47.439Z,99.90
2018-08-11T05:06:15.806Z,99.90
2018-08-11T05:08:44.146Z,99.90
2018-08-11T05:11:12.550Z,99.90
2018-08-11T05:13:40.953Z,99.90
2018-08-11T05:16:09.381Z,99.90
2018-08-11T05:18:37.750Z,99.90
2018-08-11T05:21:06.233Z,99.90
2018-08-11T05:23:34.596Z,99.90
2018-08-11T05:26:02.974Z,99.90
2018-08-11T05:28:31.371Z,99.90
2018-08-11T05:30:59.793Z,99.90
2018-08-11T05:33:28.215Z,99.90
2018-08-11T05:35:56.561Z,99.90
2018-08-11T05:38:24.892Z,99.90
2018-08-11T05:40:53.274Z,99.90
2018-08-11T05:43:21.664Z,99.90
2018-08-11T05:45:50.012Z,99.90
2018-08-11T05:48:18.318Z,99.90
2018-08-11T05:50:46.729Z,99.90
2018-08-11T05:53:15.178Z,99.90
2018-08-11T05:55:43.550Z,99.90
2018-08-11T05:58:11.977Z,99.90
2018-08-11T06:00:40.317Z,99.90
2018-08-11T06:03:08.663Z,99.90
2018-08-11T06:05:37.007Z,99.90
2018-08-11T06:08:05.689Z,99.90
2018-08-11T06:10:34.094Z,99.90
2018-08-11T06:13:02.431Z,99.90
2018-08-11T06:15:30.848Z,99.90
2018-08-11T06:17:59.344Z,99.90
2018-08-11T06:20:27.868Z,99.90
2018-08-11T06:22:56.319Z,99.90
2018-08-11T06:25:24.781Z,99.90
2018-08-11T06:27:53.221Z,99.90
2018-08-11T06:30:21.647Z,99.90
2018-08-11T06:32:50.149Z,99.90
2018-08-11T06:35:18.506Z,98.60
2018-08-11T06:37:46.962Z,97.50
2018-08-11T06:40:15.428Z,96.40
2018-08-11T06:42:44.195Z,95.80
2018-08-11T06:45:12.648Z,97.30
2018-08-11T06:47:41.049Z,97.50
2018-08-11T06:50:09.589Z,98.80
2018-08-11T06:52:38.072Z,99.30
2018-08-11T06:55:06.732Z,99.90
2018-08-11T06:57:35.058Z,99.90
2018-08-11T07:00:03.617Z,99.90
2018-08-11T07:02:32.004Z,99.90
2018-08-11T07:05:00.473Z,99.90
2018-08-11T07:07:28.944Z,99.90
2018-08-11T07:09:57.546Z,99.90
2018-08-11T07:12:25.929Z,99.70
2018-08-11T07:14:54.388Z,98.20
2018-08-11T07:17:22.735Z,98.20
2018-08-11T07:19:51.195Z,97.30
2018-08-11T07:22:19.619Z,97.20
2018-08-11T07:24:47.992Z,96.70
2018-08-11T07:27:16.440Z,96.30
2018-08-11T07:29:44.863Z,96.30
2018-08-11T07:32:13.241Z,96.40
2018-08-11T07:34:41.549Z,95.70
2018-08-11T07:37:09.959Z,95.80
2018-08-11T07:39:38.323Z,93.80
2018-08-11T07:42:06.778Z,92.30
2018-08-11T07:44:36.246Z,92.90
2018-08-11T07:47:04.842Z,92.10
2018-08-11T07:49:33.288Z,92.10
2018-08-11T07:52:01.750Z,91.80
2018-08-11T07:54:30.302Z,92.20
2018-08-11T07:56:58.812Z,92.60
2018-08-11T07:59:27.206Z,92.70
2018-08-11T08:01:55.543Z,92.30
2018-08-11T08:04:24.025Z,91.10
2018-08-11T08:06:52.355Z,90.30
2018-08-11T08:09:20.864Z,88.40
2018-08-11T08:11:49.283Z,90.00
2018-08-11T08:14:17.666Z,88.10
2018-08-11T08:16:46.014Z,90.50
2018-08-11T08:19:14.396Z,88.50
2018-08-11T08:21:42.842Z,90.90
2018-08-11T08:24:11.240Z,91.00
2018-08-11T08:26:39.736Z,90.10
2018-08-11T08:29:08.160Z,91.10
2018-08-11T08:31:36.538Z,91.20
2018-08-11T08:34:05.165Z,89.60
2018-08-11T08:36:33.530Z,90.10
2018-08-11T08:39:01.927Z,90.00
2018-08-11T08:41:30.402Z,89.50
2018-08-11T08:43:58.728Z,90.30
2018-08-11T08:46:27.189Z,86.10
2018-08-11T08:48:55.752Z,84.20
2018-08-11T08:51:24.204Z,82.40
2018-08-11T08:53:52.579Z,82.20
2018-08-11T08:56:20.998Z,81.10
2018-08-11T08:58:49.339Z,81.80
2018-08-11T09:01:17.761Z,81.00
2018-08-11T09:03:46.281Z,80.90
2018-08-11T09:06:14.748Z,78.70
2018-08-11T09:08:43.111Z,81.20
2018-08-11T09:11:11.483Z,82.60
2018-08-11T09:13:39.902Z,81.10
2018-08-11T09:16:08.267Z,82.10
2018-08-11T09:18:36.583Z,81.80
2018-08-11T09:21:05.097Z,80.50
2018-08-11T09:23:33.481Z,78.00
2018-08-11T09:26:02.152Z,78.50
2018-08-11T09:28:30.568Z,79.10
2018-08-11T09:30:59.001Z,80.90
2018-08-11T09:33:27.384Z,80.50
2018-08-11T09:35:55.756Z,81.40
2018-08-11T09:38:24.191Z,80.40
2018-08-11T09:40:53.340Z,82.70
2018-08-11T09:43:21.784Z,79.40
2018-08-11T09:45:50.358Z,82.10
2018-08-11T09:48:18.604Z,77.70
2018-08-11T09:50:47.054Z,80.10
2018-08-11T09:53:15.535Z,81.60
2018-08-11T09:55:43.900Z,81.90
2018-08-11T09:58:12.306Z,81.90
2018-08-11T10:00:45.942Z,82.80
2018-08-11T10:03:14.283Z,82.90
2018-08-11T10:05:42.697Z,83.40
2018-08-11T10:08:11.315Z,81.30
2018-08-11T10:10:39.779Z,77.50
2018-08-11T10:13:08.161Z,79.80
2018-08-11T10:15:36.615Z,78.30
2018-08-11T10:18:05.180Z,76.70
2018-08-11T10:20:33.578Z,75.40
2018-08-11T10:23:01.962Z,77.00
2018-08-11T10:25:30.314Z,76.20
2018-08-11T10:27:58.718Z,77.80
2018-08-11T10:30:27.308Z,77.50
2018-08-11T10:32:55.917Z,79.40
2018-08-11T10:35:24.230Z,76.60
2018-08-11T10:37:52.631Z,77.10
2018-08-11T10:40:21.095Z,76.20
2018-08-11T10:42:49.573Z,72.20
2018-08-11T10:45:18.232Z,75.40
2018-08-11T10:47:47.221Z,75.90
2018-08-11T10:50:15.572Z,75.50
2018-08-11T10:52:43.910Z,75.40
2018-08-11T10:55:12.331Z,72.10
2018-08-11T10:57:40.738Z,72.00
2018-08-11T11:00:09.086Z,74.90
2018-08-11T11:02:38.544Z,73.10
2018-08-11T11:05:07.560Z,76.90
2018-08-11T11:07:35.928Z,78.10
2018-08-11T11:10:04.518Z,76.10
2018-08-11T11:12:33.194Z,77.00
2018-08-11T11:15:01.524Z,77.60
2018-08-11T11:17:29.948Z,78.20
2018-08-11T11:19:58.387Z,75.70
2018-08-11T11:22:31.785Z,76.00
2018-08-11T11:25:00.669Z,77.60
2018-08-11T11:27:29.158Z,75.60
2018-08-11T11:29:57.541Z,75.50
2018-08-11T11:32:26.730Z,74.70
2018-08-11T11:34:55.546Z,75.30
2018-08-11T11:37:26.400Z,78.60
2018-08-11T11:39:54.896Z,75.10
2018-08-11T11:42:23.472Z,74.20
2018-08-11T11:44:51.879Z,75.30
2018-08-11T11:47:20.284Z,74.00
2018-08-11T11:49:48.768Z,76.20
2018-08-11T11:52:17.346Z,75.80
2018-08-11T11:54:45.780Z,75.70
2018-08-11T11:57:14.249Z,76.60
2018-08-11T11:59:42.636Z,74.90
2018-08-11T12:02:11.080Z,74.90
2018-08-11T12:04:39.431Z,75.60
2018-08-11T12:07:08.026Z,73.70
2018-08-11T12:09:36.442Z,74.80
2018-08-11T12:12:04.822Z,74.20
2018-08-11T12:14:33.263Z,76.10
2018-08-11T12:17:01.711Z,75.00
2018-08-11T12:19:30.270Z,75.20
2018-08-11T12:21:58.624Z,75.20
2018-08-11T12:24:27.102Z,75.50
2018-08-11T12:26:55.538Z,78.30
2018-08-11T12:29:23.866Z,75.50
2018-08-11T12:31:52.344Z,76.60
2018-08-11T12:34:20.706Z,76.80
2018-08-11T12:36:49.099Z,75.80
2018-08-11T12:39:17.462Z,76.00
2018-08-11T12:41:45.864Z,76.40
2018-08-11T12:44:14.281Z,74.10
2018-08-11T12:46:42.924Z,75.30
2018-08-11T12:49:11.309Z,74.40
2018-08-11T12:51:39.791Z,74.00
2018-08-11T12:54:08.838Z,77.20
2018-08-11T12:56:37.234Z,76.70
2018-08-11T12:59:05.663Z,74.80
2018-08-11T13:01:34.051Z,76.30
2018-08-11T13:04:02.407Z,74.60
2018-08-11T13:06:30.706Z,74.00
2018-08-11T13:08:59.060Z,75.50
2018-08-11T13:11:27.630Z,73.90
2018-08-11T13:13:56.764Z,74.40
2018-08-11T13:16:25.176Z,76.20
2018-08-11T13:18:53.657Z,74.90
2018-08-11T13:21:22.062Z,75.20
2018-08-11T13:23:50.404Z,78.60
2018-08-11T13:26:18.858Z,75.10
2018-08-11T13:28:47.621Z,75.80
2018-08-11T13:31:16.174Z,78.10
2018-08-11T13:33:44.573Z,77.50
2018-08-11T13:36:12.981Z,76.80
2018-08-11T13:41:52.355Z,75.40
2018-08-11T13:44:20.758Z,76.50
2018-08-11T13:46:49.268Z,76.00
2018-08-11T13:49:17.744Z,74.90
2018-08-11T13:51:46.182Z,75.90
2018-08-11T13:54:14.569Z,77.70
2018-08-11T13:56:42.934Z,75.10
2018-08-11T13:59:11.370Z,75.50
2018-08-11T14:01:40.362Z,75.30
2018-08-11T14:04:08.733Z,73.00
2018-08-11T14:06:37.251Z,72.60
2018-08-11T14:09:07.379Z,72.40
2018-08-11T14:11:35.760Z,73.20
2018-08-11T14:14:04.228Z,71.50
2018-08-11T14:16:32.707Z,70.90
2018-08-11T14:19:01.142Z,74.40
2018-08-11T14:21:29.589Z,70.40
2018-08-11T14:23:57.965Z,70.30
2018-08-11T14:26:26.426Z,71.20
2018-08-11T14:28:54.804Z,72.40
2018-08-11T14:31:23.212Z,73.30
2018-08-11T14:33:51.650Z,71.40
2018-08-11T14:36:20.092Z,71.50
2018-08-11T14:38:48.555Z,72.40
2018-08-11T14:41:16.939Z,70.70
2018-08-11T14:43:45.457Z,72.70
2018-08-11T14:46:13.789Z,70.50
2018-08-11T14:48:42.276Z,71.10
2018-08-11T14:51:11.070Z,71.10
2018-08-11T14:53:39.406Z,71.50
2018-08-11T14:56:07.869Z,69.70
2018-08-11T14:58:36.287Z,68.80
2018-08-11T15:01:04.755Z,69.80
2018-08-11T15:03:33.148Z,69.20
2018-08-11T15:06:01.562Z,70.00
2018-08-11T15:08:29.900Z,70.50
2018-08-11T15:10:58.244Z,69.70
2018-08-11T15:13:26.596Z,67.80
2018-08-11T15:15:55.003Z,68.10
2018-08-11T15:18:23.491Z,69.10
2018-08-11T15:20:51.851Z,71.80
2018-08-11T15:23:20.294Z,68.80
2018-08-11T15:25:48.650Z,70.10
2018-08-11T15:28:17.091Z,68.40
2018-08-11T15:30:45.425Z,68.90
2018-08-11T15:33:13.904Z,67.60
2018-08-11T15:35:42.404Z,68.30
2018-08-11T15:38:10.846Z,66.10
2018-08-11T15:40:39.216Z,67.20
2018-08-11T15:43:07.731Z,67.80
2018-08-11T15:45:36.107Z,66.90
2018-08-11T15:48:04.723Z,69.20
2018-08-11T15:50:33.245Z,71.10
2018-08-11T15:53:01.601Z,68.70
2018-08-11T15:55:30.040Z,68.60
2018-08-11T15:57:58.383Z,70.70
2018-08-11T16:00:26.923Z,71.20
2018-08-11T16:02:55.342Z,69.60
2018-08-11T16:05:23.691Z,68.70
2018-08-11T16:07:52.100Z,69.90
2018-08-11T16:10:20.504Z,68.60
2018-08-11T16:12:48.927Z,69.70
2018-08-11T16:15:17.317Z,67.70
2018-08-11T16:17:45.654Z,66.10
2018-08-11T16:20:14.215Z,66.10
2018-08-11T16:22:42.791Z,66.80
2018-08-11T16:25:11.309Z,66.60
2018-08-11T16:27:39.743Z,66.20
2018-08-11T16:30:10.340Z,66.30
2018-08-11T16:32:38.727Z,66.90
2018-08-11T16:35:07.227Z,66.40
2018-08-11T16:37:36.119Z,67.50
2018-08-11T16:40:04.834Z,68.20
2018-08-11T16:42:33.215Z,66.90
2018-08-11T16:45:01.660Z,66.40
2018-08-11T16:47:30.024Z,68.50
2018-08-11T16:49:58.401Z,67.10
2018-08-11T16:52:26.890Z,67.30
2018-08-11T16:54:55.263Z,66.90
2018-08-11T16:57:23.781Z,67.70
2018-08-11T16:59:52.155Z,68.80
2018-08-11T17:02:20.615Z,68.60
2018-08-11T17:04:49.302Z,68.20
2018-08-11T17:07:17.758Z,68.10
2018-08-11T17:09:46.129Z,67.90
2018-08-11T17:12:14.475Z,69.40
2018-08-11T17:14:42.961Z,68.20
2018-08-11T17:17:11.466Z,67.70
2018-08-11T17:19:39.925Z,67.30
2018-08-11T17:22:08.255Z,67.80
2018-08-11T17:24:36.724Z,69.40
2018-08-11T17:27:05.129Z,68.10
2018-08-11T17:29:33.546Z,68.10
2018-08-11T17:32:01.878Z,67.70
2018-08-11T17:34:30.315Z,67.50
2018-08-11T17:36:58.647Z,68.50
2018-08-11T17:39:27.034Z,69.10
2018-08-11T17:41:55.417Z,70.00
2018-08-11T17:44:24.450Z,68.50
2018-08-11T17:46:52.792Z,68.70
2018-08-11T17:49:21.158Z,70.30
2018-08-11T17:51:49.756Z,71.10
2018-08-11T17:54:18.274Z,70.90
2018-08-11T17:56:46.669Z,70.90
2018-08-11T17:59:21.235Z,69.90
2018-08-11T18:01:49.679Z,70.50
2018-08-11T18:04:18.106Z,71.90
2018-08-11T18:06:46.559Z,72.20
2018-08-11T18:09:15.003Z,72.10
2018-08-11T18:11:43.451Z,72.20
2018-08-11T18:14:11.841Z,74.10
2018-08-11T18:16:40.603Z,73.50
2018-08-11T18:19:09.273Z,72.60
2018-08-11T18:21:38.271Z,73.30
2018-08-11T18:24:07.176Z,73.00
2018-08-11T18:26:35.547Z,73.80
2018-08-11T18:29:03.955Z,73.40
2018-08-11T18:31:32.477Z,74.70
2018-08-11T18:34:00.869Z,74.10
2018-08-11T18:36:29.374Z,74.00
2018-08-11T18:38:57.754Z,74.20
2018-08-11T18:41:26.190Z,74.40
2018-08-11T18:43:54.528Z,74.50
2018-08-11T18:46:22.912Z,75.60
2018-08-11T18:48:51.360Z,76.90
2018-08-11T18:51:19.742Z,78.40
2018-08-11T18:53:48.267Z,79.30
2018-08-11T18:56:16.734Z,79.50
2018-08-11T18:58:45.124Z,79.60
2018-08-11T19:01:13.528Z,79.70
2018-08-11T19:03:41.984Z,80.90
2018-08-11T19:06:10.459Z,82.50
2018-08-11T19:08:38.787Z,83.10
2018-08-11T19:11:07.275Z,83.80
2018-08-11T19:13:35.678Z,84.00
2018-08-11T19:16:04.074Z,83.70
2018-08-11T19:18:32.616Z,84.00
2018-08-11T19:21:00.994Z,83.90
2018-08-11T19:23:29.362Z,83.50
2018-08-11T19:25:57.996Z,83.30
2018-08-11T19:28:26.348Z,83.00
2018-08-11T19:30:54.876Z,82.90
2018-08-11T19:33:23.337Z,83.60
2018-08-11T19:35:51.994Z,84.10
2018-08-11T19:38:20.603Z,84.80
2018-08-11T19:40:49.071Z,86.10
2018-08-11T19:43:17.639Z,87.10
2018-08-11T19:45:47.137Z,88.20
2018-08-11T19:48:15.764Z,89.20
2018-08-11T19:50:44.248Z,88.40
2018-08-11T19:53:12.626Z,90.10
2018-08-11T19:55:40.989Z,90.20
2018-08-11T19:58:09.410Z,90.30
2018-08-11T20:00:37.836Z,90.70
2018-08-11T20:03:06.641Z,91.10
2018-08-11T20:05:35.064Z,90.70
2018-08-11T20:08:03.534Z,91.10
2018-08-11T20:10:32.006Z,91.50
2018-08-11T20:13:00.452Z,92.30
2018-08-11T20:15:28.939Z,92.30
2018-08-11T20:17:57.368Z,92.30
2018-08-11T20:20:26.930Z,92.70
2018-08-11T20:22:56.157Z,92.60
2018-08-11T20:25:24.854Z,92.60
2018-08-11T20:27:53.136Z,92.80
2018-08-11T20:30:21.519Z,92.90
2018-08-11T20:32:49.968Z,93.10
2018-08-11T20:35:18.369Z,93.20
2018-08-11T20:37:46.803Z,93.40
2018-08-11T20:40:15.272Z,94.10
2018-08-11T20:42:43.710Z,94.10
2018-08-11T20:45:12.178Z,94.10
2018-08-11T20:47:40.612Z,94.30
2018-08-11T20:50:09.322Z,95.10
2018-08-11T20:52:37.828Z,94.90
2018-08-11T20:55:07.184Z,95.20
2018-08-11T20:57:35.667Z,95.40
2018-08-11T21:00:06.152Z,95.60
2018-08-11T21:02:34.604Z,95.90
2018-08-11T21:05:03.440Z,96.00
2018-08-11T21:07:31.794Z,96.50
2018-08-11T21:10:00.242Z,96.50
2018-08-11T21:12:28.775Z,96.60
2018-08-11T21:14:57.141Z,97.20
2018-08-11T21:17:25.635Z,97.40
2018-08-11T21:19:54.183Z,97.40
2018-08-11T21:22:22.626Z,97.70
2018-08-11T21:24:51.379Z,97.80
2018-08-11T21:27:19.917Z,98.00
2018-08-11T21:29:48.366Z,98.30
2018-08-11T21:32:16.814Z,98.30
2018-08-11T21:34:45.455Z,98.80
2018-08-11T21:37:13.901Z,99.10
2018-08-11T21:39:42.743Z,98.10
2018-08-11T21:42:11.173Z,99.10
2018-08-11T21:44:39.643Z,99.40
2018-08-11T21:47:08.030Z,99.00
2018-08-11T21:49:36.368Z,99.00
2018-08-11T21:52:04.831Z,99.00
2018-08-11T21:54:33.243Z,98.70
2018-08-11T21:57:01.632Z,99.00
2018-08-11T21:59:30.037Z,99.00
2018-08-11T22:01:58.428Z,99.10
2018-08-11T22:04:33.387Z,99.30
2018-08-11T22:07:03.961Z,99.30
2018-08-11T22:09:32.371Z,99.40
2018-08-11T22:12:01.050Z,99.70
2018-08-11T22:14:29.527Z,99.50
2018-08-11T22:16:58.027Z,99.50
2018-08-11T22:19:26.559Z,99.60
2018-08-11T22:21:55.041Z,99.90
2018-08-11T22:24:23.405Z,99.90
2018-08-11T22:26:51.811Z,99.90
2018-08-11T22:29:20.453Z,99.90
2018-08-11T22:31:48.936Z,99.90
2018-08-11T22:34:17.502Z,99.90
2018-08-11T22:36:45.955Z,99.90
2018-08-11T22:39:14.518Z,99.90
2018-08-11T22:41:42.969Z,99.90
2018-08-11T22:44:11.401Z,99.90
2018-08-11T22:46:39.811Z,99.90
2018-08-11T22:49:08.232Z,99.90
2018-08-11T22:51:36.607Z,99.90
2018-08-11T22:54:05.079Z,99.90
2018-08-11T22:56:33.467Z,99.90
2018-08-11T22:59:01.951Z,99.90
2018-08-11T23:01:30.321Z,99.90
2018-08-11T23:03:58.762Z,99.90
2018-08-11T23:06:27.203Z,99.90
2018-08-11T23:08:55.721Z,99.90
2018-08-11T23:11:24.161Z,99.90
2018-08-11T23:13:52.791Z,99.90
2018-08-11T23:16:21.136Z,99.90
2018-08-11T23:18:49.641Z,99.90
2018-08-11T23:21:18.036Z,99.90
2018-08-11T23:23:46.403Z,99.90
2018-08-11T23:26:14.842Z,99.90
2018-08-11T23:28:43.255Z,99.90
2018-08-11T23:31:11.610Z,99.90
2018-08-11T23:33:40.023Z,99.90
2018-08-11T23:36:08.709Z,99.90
2018-08-11T23:38:37.190Z,99.90
2018-08-11T23:41:05.631Z,99.90
2018-08-11T23:43:34.128Z,99.90
2018-08-11T23:46:02.559Z,99.90
2018-08-11T23:48:30.963Z,99.90
2018-08-11T23:50:59.395Z,99.90
2018-08-11T23:53:27.775Z,99.90
2018-08-11T23:55:56.257Z,99.90
2018-08-11T23:58:24.690Z,99.90
